sensor_id;sensor_type;location;lat;lon;timestamp;temperature;humidity
22698;DHT22;11516;51.612;7.510;2023-01-19T00:00:23;2.40;99.90
22698;DHT22;11516;51.612;7.510;2023-01-19T00:02:49;2.40;99.90
22698;DHT22;11516;51.612;7.510;2023-01-19T00:05:15;2.40;99.90
22698;DHT22;11516;51.612;7.510;2023-01-19T00:07:41;2.30;99.90
22698;DHT22;11516;51.612;7.510;2023-01-19T00:10:08;2.30;99.90
22698;DHT22;11516;51.612;7.510;2023-01-19T00:12:34;2.30;99.90
22698;DHT22;11516;51.612;7.510;2023-01-19T00:14:59;2.40;99.90
22698;DHT22;11516;51.612;7.510;2023-01-19T00:17:25;2.30;99.90
22698;DHT22;11516;51.612;7.510;2023-01-19T00:19:50;2.30;99.90
22698;DHT22;11516;51.612;7.510;2023-01-19T00:22:16;2.30;99.90
22698;DHT22;11516;51.612;7.510;2023-01-19T00:24:41;2.30;99.90
22698;DHT22;11516;51.612;7.510;2023-01-19T00:27:07;2.30;99.90
22698;DHT22;11516;51.612;7.510;2023-01-19T00:29:32;2.30;99.90
22698;DHT22;11516;51.612;7.510;2023-01-19T00:32:03;2.40;99.90
22698;DHT22;11516;51.612;7.510;2023-01-19T00:34:29;2.40;99.90
22698;DHT22;11516;51.612;7.510;2023-01-19T00:37:02;2.40;99.90
22698;DHT22;11516;51.612;7.510;2023-01-19T00:39:27;2.30;99.90
22698;DHT22;11516;51.612;7.510;2023-01-19T00:41:53;2.40;99.90
22698;DHT22;11516;51.612;7.510;2023-01-19T00:44:37;2.30;99.90
22698;DHT22;11516;51.612;7.510;2023-01-19T00:47:02;2.40;99.90
22698;DHT22;11516;51.612;7.510;2023-01-19T00:49:30;2.30;99.90
22698;DHT22;11516;51.612;7.510;2023-01-19T00:51:55;2.30;99.90
22698;DHT22;11516;51.612;7.510;2023-01-19T00:54:21;2.30;99.90
22698;DHT22;11516;51.612;7.510;2023-01-19T00:56:46;2.30;99.90
22698;DHT22;11516;51.612;7.510;2023-01-19T00:59:12;2.30;99.90
22698;DHT22;11516;51.612;7.510;2023-01-19T01:01:37;2.40;99.90
22698;DHT22;11516;51.612;7.510;2023-01-19T01:04:03;2.40;99.90
22698;DHT22;11516;51.612;7.510;2023-01-19T01:06:28;2.50;99.90
22698;DHT22;11516;51.612;7.510;2023-01-19T01:08:54;2.60;99.90
22698;DHT22;11516;51.612;7.510;2023-01-19T01:11:19;2.50;99.90
22698;DHT22;11516;51.612;7.510;2023-01-19T01:13:45;2.50;99.90
22698;DHT22;11516;51.612;7.510;2023-01-19T01:16:13;2.50;99.90
22698;DHT22;11516;51.612;7.510;2023-01-19T01:18:38;2.60;99.90
22698;DHT22;11516;51.612;7.510;2023-01-19T01:21:05;2.50;99.90
22698;DHT22;11516;51.612;7.510;2023-01-19T01:23:31;2.50;99.90
22698;DHT22;11516;51.612;7.510;2023-01-19T01:25:57;2.50;99.90
22698;DHT22;11516;51.612;7.510;2023-01-19T01:28:23;2.50;99.90
22698;DHT22;11516;51.612;7.510;2023-01-19T01:30:53;2.60;99.90
22698;DHT22;11516;51.612;7.510;2023-01-19T01:33:18;2.60;99.90
22698;DHT22;11516;51.612;7.510;2023-01-19T01:35:44;2.70;99.90
22698;DHT22;11516;51.612;7.510;2023-01-19T01:38:10;2.70;99.90
22698;DHT22;11516;51.612;7.510;2023-01-19T01:40:38;2.70;99.90
22698;DHT22;11516;51.612;7.510;2023-01-19T01:43:10;2.80;99.90
22698;DHT22;11516;51.612;7.510;2023-01-19T01:45:37;2.70;99.90
22698;DHT22;11516;51.612;7.510;2023-01-19T01:48:30;2.80;99.90
22698;DHT22;11516;51.612;7.510;2023-01-19T01:51:21;2.80;99.90
22698;DHT22;11516;51.612;7.510;2023-01-19T01:54:05;2.80;99.90
22698;DHT22;11516;51.612;7.510;2023-01-19T01:56:38;2.80;99.90
22698;DHT22;11516;51.612;7.510;2023-01-19T01:59:08;2.80;99.90
22698;DHT22;11516;51.612;7.510;2023-01-19T02:01:36;2.90;99.90
22698;DHT22;11516;51.612;7.510;2023-01-19T02:04:20;2.90;99.90
22698;DHT22;11516;51.612;7.510;2023-01-19T02:06:46;2.90;99.90
22698;DHT22;11516;51.612;7.510;2023-01-19T02:09:33;2.90;99.90
22698;DHT22;11516;51.612;7.510;2023-01-19T02:12:20;3.00;99.90
22698;DHT22;11516;51.612;7.510;2023-01-19T02:15:04;3.00;99.90
22698;DHT22;11516;51.612;7.510;2023-01-19T02:17:30;2.90;99.90
22698;DHT22;11516;51.612;7.510;2023-01-19T02:19:55;2.90;99.90
22698;DHT22;11516;51.612;7.510;2023-01-19T02:22:27;2.90;99.90
22698;DHT22;11516;51.612;7.510;2023-01-19T02:24:54;2.90;99.90
22698;DHT22;11516;51.612;7.510;2023-01-19T02:27:20;2.90;99.90
22698;DHT22;11516;51.612;7.510;2023-01-19T02:29:46;2.90;99.90
22698;DHT22;11516;51.612;7.510;2023-01-19T02:32:12;3.00;99.90
22698;DHT22;11516;51.612;7.510;2023-01-19T02:34:37;2.90;99.90
22698;DHT22;11516;51.612;7.510;2023-01-19T02:37:08;2.90;99.90
22698;DHT22;11516;51.612;7.510;2023-01-19T02:39:38;3.00;99.90
22698;DHT22;11516;51.612;7.510;2023-01-19T02:42:18;3.00;99.90
22698;DHT22;11516;51.612;7.510;2023-01-19T02:44:48;3.00;99.90
22698;DHT22;11516;51.612;7.510;2023-01-19T02:47:14;2.90;99.90
22698;DHT22;11516;51.612;7.510;2023-01-19T02:49:40;3.00;99.90
22698;DHT22;11516;51.612;7.510;2023-01-19T02:52:11;3.00;99.90
22698;DHT22;11516;51.612;7.510;2023-01-19T02:55:13;3.00;99.90
22698;DHT22;11516;51.612;7.510;2023-01-19T03:03:22;3.00;99.90
22698;DHT22;11516;51.612;7.510;2023-01-19T03:06:36;2.90;99.90
22698;DHT22;11516;51.612;7.510;2023-01-19T03:09:21;2.90;99.90
22698;DHT22;11516;51.612;7.510;2023-01-19T03:11:53;2.80;99.90
22698;DHT22;11516;51.612;7.510;2023-01-19T03:14:25;2.80;99.90
22698;DHT22;11516;51.612;7.510;2023-01-19T03:16:57;2.70;99.90
22698;DHT22;11516;51.612;7.510;2023-01-19T03:19:26;2.80;99.90
22698;DHT22;11516;51.612;7.510;2023-01-19T03:21:57;2.80;99.90
22698;DHT22;11516;51.612;7.510;2023-01-19T03:24:24;2.80;99.90
22698;DHT22;11516;51.612;7.510;2023-01-19T03:26:57;2.80;99.90
22698;DHT22;11516;51.612;7.510;2023-01-19T03:29:31;2.70;99.90
22698;DHT22;11516;51.612;7.510;2023-01-19T03:32:02;2.70;99.90
22698;DHT22;11516;51.612;7.510;2023-01-19T03:34:30;2.70;99.90
22698;DHT22;11516;51.612;7.510;2023-01-19T03:36:59;2.70;99.90
22698;DHT22;11516;51.612;7.510;2023-01-19T03:39:27;2.70;99.90
22698;DHT22;11516;51.612;7.510;2023-01-19T03:42:00;2.80;99.90
22698;DHT22;11516;51.612;7.510;2023-01-19T03:44:28;2.70;99.90
22698;DHT22;11516;51.612;7.510;2023-01-19T03:46:56;2.70;99.90
22698;DHT22;11516;51.612;7.510;2023-01-19T03:49:22;2.70;99.90
22698;DHT22;11516;51.612;7.510;2023-01-19T03:51:49;2.70;99.90
22698;DHT22;11516;51.612;7.510;2023-01-19T03:54:14;2.70;99.90
22698;DHT22;11516;51.612;7.510;2023-01-19T03:56:41;2.80;99.90
22698;DHT22;11516;51.612;7.510;2023-01-19T03:59:08;2.80;99.90
22698;DHT22;11516;51.612;7.510;2023-01-19T04:01:33;2.80;99.90
22698;DHT22;11516;51.612;7.510;2023-01-19T04:03:59;2.80;99.90
22698;DHT22;11516;51.612;7.510;2023-01-19T04:06:24;2.80;99.90
22698;DHT22;11516;51.612;7.510;2023-01-19T04:08:51;2.80;99.90
22698;DHT22;11516;51.612;7.510;2023-01-19T04:11:16;2.90;99.90
22698;DHT22;11516;51.612;7.510;2023-01-19T04:13:42;2.90;99.90
22698;DHT22;11516;51.612;7.510;2023-01-19T04:16:09;3.00;99.90
22698;DHT22;11516;51.612;7.510;2023-01-19T04:18:34;2.90;99.90
22698;DHT22;11516;51.612;7.510;2023-01-19T04:21:02;3.00;99.90
22698;DHT22;11516;51.612;7.510;2023-01-19T04:23:28;3.00;99.90
22698;DHT22;11516;51.612;7.510;2023-01-19T04:25:57;3.00;99.90
22698;DHT22;11516;51.612;7.510;2023-01-19T04:28:24;3.10;99.90
22698;DHT22;11516;51.612;7.510;2023-01-19T04:30:50;3.10;99.90
22698;DHT22;11516;51.612;7.510;2023-01-19T04:33:20;3.10;99.90
22698;DHT22;11516;51.612;7.510;2023-01-19T04:35:47;3.10;99.90
22698;DHT22;11516;51.612;7.510;2023-01-19T04:38:13;3.10;99.90
22698;DHT22;11516;51.612;7.510;2023-01-19T04:40:39;3.00;99.90
22698;DHT22;11516;51.612;7.510;2023-01-19T04:43:05;2.90;99.90
22698;DHT22;11516;51.612;7.510;2023-01-19T04:45:30;2.80;99.90
22698;DHT22;11516;51.612;7.510;2023-01-19T04:47:56;2.70;99.90
22698;DHT22;11516;51.612;7.510;2023-01-19T04:50:21;2.60;99.90
22698;DHT22;11516;51.612;7.510;2023-01-19T04:52:47;2.60;99.90
22698;DHT22;11516;51.612;7.510;2023-01-19T04:55:13;2.60;99.90
22698;DHT22;11516;51.612;7.510;2023-01-19T04:57:39;2.40;99.90
22698;DHT22;11516;51.612;7.510;2023-01-19T05:00:05;2.20;99.90
22698;DHT22;11516;51.612;7.510;2023-01-19T05:02:32;1.90;99.90
22698;DHT22;11516;51.612;7.510;2023-01-19T05:04:58;1.60;99.90
22698;DHT22;11516;51.612;7.510;2023-01-19T05:07:24;1.40;99.90
22698;DHT22;11516;51.612;7.510;2023-01-19T05:09:49;1.30;99.90
22698;DHT22;11516;51.612;7.510;2023-01-19T05:12:15;1.20;99.90
22698;DHT22;11516;51.612;7.510;2023-01-19T05:14:40;1.10;99.90
22698;DHT22;11516;51.612;7.510;2023-01-19T05:17:08;1.10;99.90
22698;DHT22;11516;51.612;7.510;2023-01-19T05:19:34;1.10;99.90
22698;DHT22;11516;51.612;7.510;2023-01-19T05:22:01;1.10;99.90
22698;DHT22;11516;51.612;7.510;2023-01-19T05:24:28;1.10;99.90
22698;DHT22;11516;51.612;7.510;2023-01-19T05:26:53;1.10;99.90
22698;DHT22;11516;51.612;7.510;2023-01-19T05:29:19;1.10;99.90
22698;DHT22;11516;51.612;7.510;2023-01-19T05:31:45;1.10;99.90
22698;DHT22;11516;51.612;7.510;2023-01-19T05:34:11;1.20;99.90
22698;DHT22;11516;51.612;7.510;2023-01-19T05:36:37;1.20;99.90
22698;DHT22;11516;51.612;7.510;2023-01-19T05:39:03;1.20;99.90
22698;DHT22;11516;51.612;7.510;2023-01-19T05:41:28;1.10;99.90
22698;DHT22;11516;51.612;7.510;2023-01-19T05:43:54;1.20;99.90
22698;DHT22;11516;51.612;7.510;2023-01-19T05:46:20;1.20;99.90
22698;DHT22;11516;51.612;7.510;2023-01-19T05:48:45;1.20;99.90
22698;DHT22;11516;51.612;7.510;2023-01-19T05:51:11;1.20;99.90
22698;DHT22;11516;51.612;7.510;2023-01-19T05:53:37;1.20;99.90
22698;DHT22;11516;51.612;7.510;2023-01-19T05:56:04;1.10;99.90
22698;DHT22;11516;51.612;7.510;2023-01-19T05:58:30;1.20;99.90
22698;DHT22;11516;51.612;7.510;2023-01-19T06:00:56;1.10;99.90
22698;DHT22;11516;51.612;7.510;2023-01-19T06:03:22;1.20;99.90
22698;DHT22;11516;51.612;7.510;2023-01-19T06:05:47;1.20;99.90
22698;DHT22;11516;51.612;7.510;2023-01-19T06:08:13;1.20;99.90
22698;DHT22;11516;51.612;7.510;2023-01-19T06:10:38;1.20;99.90
22698;DHT22;11516;51.612;7.510;2023-01-19T06:13:04;1.10;99.90
22698;DHT22;11516;51.612;7.510;2023-01-19T06:15:30;1.00;99.90
22698;DHT22;11516;51.612;7.510;2023-01-19T06:17:55;1.00;99.90
22698;DHT22;11516;51.612;7.510;2023-01-19T06:20:21;1.00;99.90
22698;DHT22;11516;51.612;7.510;2023-01-19T06:22:46;1.00;99.90
22698;DHT22;11516;51.612;7.510;2023-01-19T06:25:12;1.00;99.90
22698;DHT22;11516;51.612;7.510;2023-01-19T06:27:41;1.00;99.90
22698;DHT22;11516;51.612;7.510;2023-01-19T06:30:07;1.00;99.90
22698;DHT22;11516;51.612;7.510;2023-01-19T06:32:33;1.00;99.90
22698;DHT22;11516;51.612;7.510;2023-01-19T06:34:58;1.10;99.90
22698;DHT22;11516;51.612;7.510;2023-01-19T06:37:24;1.00;99.90
22698;DHT22;11516;51.612;7.510;2023-01-19T06:39:51;1.10;99.90
22698;DHT22;11516;51.612;7.510;2023-01-19T06:42:17;1.10;99.90
22698;DHT22;11516;51.612;7.510;2023-01-19T06:44:42;1.00;99.90
22698;DHT22;11516;51.612;7.510;2023-01-19T06:47:12;1.00;99.90
22698;DHT22;11516;51.612;7.510;2023-01-19T06:49:38;1.00;99.90
22698;DHT22;11516;51.612;7.510;2023-01-19T06:52:04;1.00;99.90
22698;DHT22;11516;51.612;7.510;2023-01-19T06:54:29;1.10;99.90
22698;DHT22;11516;51.612;7.510;2023-01-19T06:56:55;1.10;99.90
22698;DHT22;11516;51.612;7.510;2023-01-19T06:59:20;1.00;99.90
22698;DHT22;11516;51.612;7.510;2023-01-19T07:01:46;1.10;99.90
22698;DHT22;11516;51.612;7.510;2023-01-19T07:04:11;1.10;99.90
22698;DHT22;11516;51.612;7.510;2023-01-19T07:06:38;1.00;99.90
22698;DHT22;11516;51.612;7.510;2023-01-19T07:09:04;1.00;99.90
22698;DHT22;11516;51.612;7.510;2023-01-19T07:11:32;1.00;99.90
22698;DHT22;11516;51.612;7.510;2023-01-19T07:13:58;1.00;99.90
22698;DHT22;11516;51.612;7.510;2023-01-19T07:16:24;1.10;99.90
22698;DHT22;11516;51.612;7.510;2023-01-19T07:18:49;1.10;99.90
22698;DHT22;11516;51.612;7.510;2023-01-19T07:21:15;1.00;99.90
22698;DHT22;11516;51.612;7.510;2023-01-19T07:23:41;1.00;99.90
22698;DHT22;11516;51.612;7.510;2023-01-19T07:26:08;1.00;99.90
22698;DHT22;11516;51.612;7.510;2023-01-19T07:28:34;1.00;99.90
22698;DHT22;11516;51.612;7.510;2023-01-19T07:31:01;1.00;99.90
22698;DHT22;11516;51.612;7.510;2023-01-19T07:33:28;1.00;99.90
22698;DHT22;11516;51.612;7.510;2023-01-19T07:35:54;1.00;99.90
22698;DHT22;11516;51.612;7.510;2023-01-19T07:38:19;1.10;99.90
22698;DHT22;11516;51.612;7.510;2023-01-19T07:40:45;1.10;99.90
22698;DHT22;11516;51.612;7.510;2023-01-19T07:43:12;1.10;99.90
22698;DHT22;11516;51.612;7.510;2023-01-19T07:45:38;1.10;99.90
22698;DHT22;11516;51.612;7.510;2023-01-19T07:48:04;1.10;99.90
22698;DHT22;11516;51.612;7.510;2023-01-19T07:50:30;1.20;99.90
22698;DHT22;11516;51.612;7.510;2023-01-19T07:52:55;1.20;99.90
22698;DHT22;11516;51.612;7.510;2023-01-19T07:55:22;1.20;99.90
22698;DHT22;11516;51.612;7.510;2023-01-19T07:57:48;1.20;99.90
22698;DHT22;11516;51.612;7.510;2023-01-19T08:00:18;1.20;99.90
22698;DHT22;11516;51.612;7.510;2023-01-19T08:02:47;1.20;99.90
22698;DHT22;11516;51.612;7.510;2023-01-19T08:05:15;1.20;99.90
22698;DHT22;11516;51.612;7.510;2023-01-19T08:07:41;1.20;99.90
22698;DHT22;11516;51.612;7.510;2023-01-19T08:10:07;1.20;99.90
22698;DHT22;11516;51.612;7.510;2023-01-19T08:12:33;1.20;99.90
22698;DHT22;11516;51.612;7.510;2023-01-19T08:14:58;1.20;99.90
22698;DHT22;11516;51.612;7.510;2023-01-19T08:17:24;1.20;99.90
22698;DHT22;11516;51.612;7.510;2023-01-19T08:19:50;1.20;99.90
22698;DHT22;11516;51.612;7.510;2023-01-19T08:22:15;1.30;99.90
22698;DHT22;11516;51.612;7.510;2023-01-19T08:24:41;1.30;99.90
22698;DHT22;11516;51.612;7.510;2023-01-19T08:27:06;1.30;99.90
22698;DHT22;11516;51.612;7.510;2023-01-19T08:29:34;1.40;99.90
22698;DHT22;11516;51.612;7.510;2023-01-19T08:32:00;1.40;99.90
22698;DHT22;11516;51.612;7.510;2023-01-19T08:34:28;1.40;99.90
22698;DHT22;11516;51.612;7.510;2023-01-19T08:36:55;1.50;99.90
22698;DHT22;11516;51.612;7.510;2023-01-19T08:39:21;1.60;99.90
22698;DHT22;11516;51.612;7.510;2023-01-19T08:41:51;1.60;99.90
22698;DHT22;11516;51.612;7.510;2023-01-19T08:44:17;1.60;99.90
22698;DHT22;11516;51.612;7.510;2023-01-19T08:46:43;1.60;99.90
22698;DHT22;11516;51.612;7.510;2023-01-19T08:49:08;1.60;99.90
22698;DHT22;11516;51.612;7.510;2023-01-19T08:51:34;1.60;99.90
22698;DHT22;11516;51.612;7.510;2023-01-19T08:54:00;1.60;99.90
22698;DHT22;11516;51.612;7.510;2023-01-19T08:56:25;1.60;99.90
22698;DHT22;11516;51.612;7.510;2023-01-19T08:58:51;1.60;99.90
22698;DHT22;11516;51.612;7.510;2023-01-19T09:01:16;1.70;99.90
22698;DHT22;11516;51.612;7.510;2023-01-19T09:03:44;1.60;99.90
22698;DHT22;11516;51.612;7.510;2023-01-19T09:06:12;1.70;99.90
22698;DHT22;11516;51.612;7.510;2023-01-19T09:08:39;1.70;99.90
22698;DHT22;11516;51.612;7.510;2023-01-19T09:11:09;1.60;99.90
22698;DHT22;11516;51.612;7.510;2023-01-19T09:13:35;1.60;99.90
22698;DHT22;11516;51.612;7.510;2023-01-19T09:16:01;1.60;99.90
22698;DHT22;11516;51.612;7.510;2023-01-19T09:18:28;1.70;99.90
22698;DHT22;11516;51.612;7.510;2023-01-19T09:20:56;1.70;99.90
22698;DHT22;11516;51.612;7.510;2023-01-19T09:23:21;1.80;99.90
22698;DHT22;11516;51.612;7.510;2023-01-19T09:25:48;1.80;99.90
22698;DHT22;11516;51.612;7.510;2023-01-19T09:28:15;1.80;99.90
22698;DHT22;11516;51.612;7.510;2023-01-19T09:30:42;1.90;99.90
22698;DHT22;11516;51.612;7.510;2023-01-19T09:33:13;1.90;99.90
22698;DHT22;11516;51.612;7.510;2023-01-19T09:35:40;2.00;99.90
22698;DHT22;11516;51.612;7.510;2023-01-19T09:38:06;2.00;99.90
22698;DHT22;11516;51.612;7.510;2023-01-19T09:40:34;1.90;99.90
22698;DHT22;11516;51.612;7.510;2023-01-19T09:43:11;1.90;99.90
22698;DHT22;11516;51.612;7.510;2023-01-19T09:48:51;2.00;99.90
22698;DHT22;11516;51.612;7.510;2023-01-19T09:51:28;2.00;99.90
22698;DHT22;11516;51.612;7.510;2023-01-19T09:54:16;2.10;99.90
22698;DHT22;11516;51.612;7.510;2023-01-19T09:56:43;2.10;99.90
22698;DHT22;11516;51.612;7.510;2023-01-19T09:59:28;2.10;99.90
22698;DHT22;11516;51.612;7.510;2023-01-19T10:04:58;2.20;99.90
22698;DHT22;11516;51.612;7.510;2023-01-19T10:07:33;2.20;99.90
22698;DHT22;11516;51.612;7.510;2023-01-19T10:15:24;2.30;99.90
22698;DHT22;11516;51.612;7.510;2023-01-19T10:23:33;2.30;99.90
22698;DHT22;11516;51.612;7.510;2023-01-19T10:26:04;2.30;99.90
22698;DHT22;11516;51.612;7.510;2023-01-19T10:28:31;2.30;99.90
22698;DHT22;11516;51.612;7.510;2023-01-19T10:30:57;2.30;99.90
22698;DHT22;11516;51.612;7.510;2023-01-19T10:33:23;2.40;99.90
22698;DHT22;11516;51.612;7.510;2023-01-19T10:35:48;2.40;99.90
22698;DHT22;11516;51.612;7.510;2023-01-19T10:38:16;2.40;99.90
22698;DHT22;11516;51.612;7.510;2023-01-19T10:41:04;2.40;99.90
22698;DHT22;11516;51.612;7.510;2023-01-19T10:46:20;2.50;99.90
22698;DHT22;11516;51.612;7.510;2023-01-19T10:48:49;2.50;99.90
22698;DHT22;11516;51.612;7.510;2023-01-19T10:51:15;2.40;99.90
22698;DHT22;11516;51.612;7.510;2023-01-19T10:53:51;2.40;99.90
22698;DHT22;11516;51.612;7.510;2023-01-19T10:56:26;2.40;99.90
22698;DHT22;11516;51.612;7.510;2023-01-19T10:58:52;2.40;99.90
22698;DHT22;11516;51.612;7.510;2023-01-19T11:01:23;2.40;99.90
22698;DHT22;11516;51.612;7.510;2023-01-19T11:03:50;2.40;99.90
22698;DHT22;11516;51.612;7.510;2023-01-19T11:06:26;2.40;99.90
22698;DHT22;11516;51.612;7.510;2023-01-19T11:09:09;2.50;99.90
22698;DHT22;11516;51.612;7.510;2023-01-19T11:11:48;2.50;99.90
22698;DHT22;11516;51.612;7.510;2023-01-19T11:14:18;2.60;99.90
22698;DHT22;11516;51.612;7.510;2023-01-19T11:16:47;2.60;99.90
22698;DHT22;11516;51.612;7.510;2023-01-19T11:19:19;2.50;99.90
22698;DHT22;11516;51.612;7.510;2023-01-19T11:21:46;2.60;99.90
22698;DHT22;11516;51.612;7.510;2023-01-19T11:24:12;2.60;99.90
22698;DHT22;11516;51.612;7.510;2023-01-19T11:26:41;2.60;99.90
22698;DHT22;11516;51.612;7.510;2023-01-19T11:29:19;2.70;99.90
22698;DHT22;11516;51.612;7.510;2023-01-19T11:31:45;2.70;99.90
22698;DHT22;11516;51.612;7.510;2023-01-19T11:36:56;2.80;99.90
22698;DHT22;11516;51.612;7.510;2023-01-19T11:39:24;2.70;99.90
22698;DHT22;11516;51.612;7.510;2023-01-19T11:42:02;2.70;99.90
22698;DHT22;11516;51.612;7.510;2023-01-19T11:44:35;2.80;99.90
22698;DHT22;11516;51.612;7.510;2023-01-19T11:47:13;2.80;99.90
22698;DHT22;11516;51.612;7.510;2023-01-19T11:49:48;3.00;99.90
22698;DHT22;11516;51.612;7.510;2023-01-19T11:54:45;3.70;99.90
22698;DHT22;11516;51.612;7.510;2023-01-19T11:57:15;3.90;99.90
22698;DHT22;11516;51.612;7.510;2023-01-19T11:59:41;4.10;99.90
22698;DHT22;11516;51.612;7.510;2023-01-19T12:02:24;3.80;99.90
22698;DHT22;11516;51.612;7.510;2023-01-19T12:04:54;3.70;99.90
22698;DHT22;11516;51.612;7.510;2023-01-19T12:07:27;3.70;99.90
22698;DHT22;11516;51.612;7.510;2023-01-19T12:09:59;3.60;99.90
22698;DHT22;11516;51.612;7.510;2023-01-19T12:12:31;3.60;99.90
22698;DHT22;11516;51.612;7.510;2023-01-19T12:15:36;3.50;99.90
22698;DHT22;11516;51.612;7.510;2023-01-19T12:18:04;3.40;99.90
22698;DHT22;11516;51.612;7.510;2023-01-19T12:20:36;3.30;99.90
22698;DHT22;11516;51.612;7.510;2023-01-19T12:28:12;3.40;99.90
22698;DHT22;11516;51.612;7.510;2023-01-19T12:30:38;3.30;99.90
22698;DHT22;11516;51.612;7.510;2023-01-19T12:35:58;3.30;99.90
22698;DHT22;11516;51.612;7.510;2023-01-19T12:38:46;3.40;99.90
22698;DHT22;11516;51.612;7.510;2023-01-19T12:41:23;3.40;99.90
22698;DHT22;11516;51.612;7.510;2023-01-19T12:47:16;3.30;99.90
22698;DHT22;11516;51.612;7.510;2023-01-19T12:49:53;3.30;99.90
22698;DHT22;11516;51.612;7.510;2023-01-19T12:52:32;3.30;99.90
22698;DHT22;11516;51.612;7.510;2023-01-19T12:55:21;3.30;99.90
22698;DHT22;11516;51.612;7.510;2023-01-19T13:00:38;3.40;99.90
22698;DHT22;11516;51.612;7.510;2023-01-19T13:13:32;3.40;99.90
22698;DHT22;11516;51.612;7.510;2023-01-19T13:21:34;3.30;99.90
22698;DHT22;11516;51.612;7.510;2023-01-19T13:24:02;3.10;99.90
22698;DHT22;11516;51.612;7.510;2023-01-19T13:26:31;3.30;99.90
22698;DHT22;11516;51.612;7.510;2023-01-19T13:29:14;3.30;99.90
22698;DHT22;11516;51.612;7.510;2023-01-19T13:31:42;3.40;99.90
22698;DHT22;11516;51.612;7.510;2023-01-19T13:34:18;3.40;99.90
22698;DHT22;11516;51.612;7.510;2023-01-19T13:36:48;3.40;99.90
22698;DHT22;11516;51.612;7.510;2023-01-19T13:39:35;3.40;99.90
22698;DHT22;11516;51.612;7.510;2023-01-19T13:42:05;3.50;99.90
22698;DHT22;11516;51.612;7.510;2023-01-19T13:44:36;3.50;99.90
22698;DHT22;11516;51.612;7.510;2023-01-19T13:47:07;3.60;99.90
22698;DHT22;11516;51.612;7.510;2023-01-19T13:49:39;3.60;99.90
22698;DHT22;11516;51.612;7.510;2023-01-19T13:52:19;3.50;99.90
22698;DHT22;11516;51.612;7.510;2023-01-19T13:54:59;3.40;99.90
22698;DHT22;11516;51.612;7.510;2023-01-19T13:57:30;3.50;99.90
22698;DHT22;11516;51.612;7.510;2023-01-19T14:05:39;3.50;99.90
22698;DHT22;11516;51.612;7.510;2023-01-19T14:13:16;3.30;99.90
22698;DHT22;11516;51.612;7.510;2023-01-19T14:15:43;3.20;99.90
22698;DHT22;11516;51.612;7.510;2023-01-19T14:21:10;3.30;99.90
22698;DHT22;11516;51.612;7.510;2023-01-19T14:26:33;3.20;99.90
22698;DHT22;11516;51.612;7.510;2023-01-19T14:28:51;3.20;99.90
22698;DHT22;11516;51.612;7.510;2023-01-19T14:31:22;3.10;99.90
22698;DHT22;11516;51.612;7.510;2023-01-19T14:33:50;3.20;99.90
22698;DHT22;11516;51.612;7.510;2023-01-19T14:36:32;3.30;99.90
22698;DHT22;11516;51.612;7.510;2023-01-19T14:38:59;3.30;99.90
22698;DHT22;11516;51.612;7.510;2023-01-19T14:41:36;3.20;99.90
22698;DHT22;11516;51.612;7.510;2023-01-19T14:44:10;3.10;99.90
22698;DHT22;11516;51.612;7.510;2023-01-19T14:46:45;3.10;99.90
22698;DHT22;11516;51.612;7.510;2023-01-19T14:51:53;3.10;99.90
22698;DHT22;11516;51.612;7.510;2023-01-19T14:54:30;3.10;99.90
22698;DHT22;11516;51.612;7.510;2023-01-19T14:56:57;3.00;99.90
22698;DHT22;11516;51.612;7.510;2023-01-19T14:59:23;3.10;99.90
22698;DHT22;11516;51.612;7.510;2023-01-19T15:01:48;3.00;99.90
22698;DHT22;11516;51.612;7.510;2023-01-19T15:04:14;3.00;99.90
22698;DHT22;11516;51.612;7.510;2023-01-19T15:06:41;3.10;99.90
22698;DHT22;11516;51.612;7.510;2023-01-19T15:09:12;3.20;99.90
22698;DHT22;11516;51.612;7.510;2023-01-19T15:11:38;3.20;99.90
22698;DHT22;11516;51.612;7.510;2023-01-19T15:14:03;3.10;99.90
22698;DHT22;11516;51.612;7.510;2023-01-19T15:16:32;3.10;99.90
22698;DHT22;11516;51.612;7.510;2023-01-19T15:18:58;3.10;99.90
22698;DHT22;11516;51.612;7.510;2023-01-19T15:21:24;3.10;99.90
22698;DHT22;11516;51.612;7.510;2023-01-19T15:23:53;3.10;99.90
22698;DHT22;11516;51.612;7.510;2023-01-19T15:26:20;3.10;99.90
22698;DHT22;11516;51.612;7.510;2023-01-19T15:28:47;3.10;99.90
22698;DHT22;11516;51.612;7.510;2023-01-19T15:31:18;3.00;99.90
22698;DHT22;11516;51.612;7.510;2023-01-19T15:33:45;3.00;99.90
22698;DHT22;11516;51.612;7.510;2023-01-19T15:36:15;3.00;99.90
22698;DHT22;11516;51.612;7.510;2023-01-19T15:38:41;2.90;99.90
22698;DHT22;11516;51.612;7.510;2023-01-19T15:41:20;3.00;99.90
22698;DHT22;11516;51.612;7.510;2023-01-19T15:43:46;2.90;99.90
22698;DHT22;11516;51.612;7.510;2023-01-19T15:46:13;2.90;99.90
22698;DHT22;11516;51.612;7.510;2023-01-19T15:48:40;2.90;99.90
22698;DHT22;11516;51.612;7.510;2023-01-19T15:51:11;2.80;99.90
22698;DHT22;11516;51.612;7.510;2023-01-19T15:53:36;2.80;99.90
22698;DHT22;11516;51.612;7.510;2023-01-19T15:56:02;2.80;99.90
22698;DHT22;11516;51.612;7.510;2023-01-19T15:58:27;2.70;99.90
22698;DHT22;11516;51.612;7.510;2023-01-19T16:00:57;2.70;99.90
22698;DHT22;11516;51.612;7.510;2023-01-19T16:03:24;2.60;99.90
22698;DHT22;11516;51.612;7.510;2023-01-19T16:05:49;2.60;99.90
22698;DHT22;11516;51.612;7.510;2023-01-19T16:08:15;2.80;99.90
22698;DHT22;11516;51.612;7.510;2023-01-19T16:10:41;2.60;99.90
22698;DHT22;11516;51.612;7.510;2023-01-19T16:13:09;2.50;99.90
22698;DHT22;11516;51.612;7.510;2023-01-19T16:15:36;2.40;99.90
22698;DHT22;11516;51.612;7.510;2023-01-19T16:18:03;2.50;99.90
22698;DHT22;11516;51.612;7.510;2023-01-19T16:20:29;2.40;99.90
22698;DHT22;11516;51.612;7.510;2023-01-19T16:22:54;2.40;99.90
22698;DHT22;11516;51.612;7.510;2023-01-19T16:25:20;2.30;99.90
22698;DHT22;11516;51.612;7.510;2023-01-19T16:27:48;2.30;99.90
22698;DHT22;11516;51.612;7.510;2023-01-19T16:30:13;2.40;99.90
22698;DHT22;11516;51.612;7.510;2023-01-19T16:32:40;2.30;99.90
22698;DHT22;11516;51.612;7.510;2023-01-19T16:35:06;2.30;99.90
22698;DHT22;11516;51.612;7.510;2023-01-19T16:37:32;2.30;99.90
22698;DHT22;11516;51.612;7.510;2023-01-19T16:39:58;2.30;99.90
22698;DHT22;11516;51.612;7.510;2023-01-19T16:42:24;2.20;99.90
22698;DHT22;11516;51.612;7.510;2023-01-19T16:44:49;2.20;99.90
22698;DHT22;11516;51.612;7.510;2023-01-19T16:47:15;2.20;99.90
22698;DHT22;11516;51.612;7.510;2023-01-19T16:49:40;2.20;99.90
22698;DHT22;11516;51.612;7.510;2023-01-19T16:52:06;2.10;99.90
22698;DHT22;11516;51.612;7.510;2023-01-19T16:54:31;2.10;99.90
22698;DHT22;11516;51.612;7.510;2023-01-19T16:56:57;2.10;99.90
22698;DHT22;11516;51.612;7.510;2023-01-19T16:59:23;2.10;99.90
22698;DHT22;11516;51.612;7.510;2023-01-19T17:01:50;2.10;99.90
22698;DHT22;11516;51.612;7.510;2023-01-19T17:04:17;2.10;99.90
22698;DHT22;11516;51.612;7.510;2023-01-19T17:06:43;2.10;99.90
22698;DHT22;11516;51.612;7.510;2023-01-19T17:09:10;2.10;99.90
22698;DHT22;11516;51.612;7.510;2023-01-19T17:11:36;2.10;99.90
22698;DHT22;11516;51.612;7.510;2023-01-19T17:14:04;2.10;99.90